Chembulk Savannah — V7OP7 — position and weather

sailwx.info

Track history (hours):
 
Tides and Currents Weather Stations Pressure Air Temp Water Temp Dewpoint Dewpoint Depression Visibility Wind Speed Wind Dir Waves Ship Positions

Chembulk Savannah

Last reported at 2017-Dec-02 23:41 UTC. Time now 2017-Dec-16 11:09 UTC.
Position N 49°42' W 005°08'.
Warning: this ship's position is 13 days out of date.

Length 153 m; draft 7.9 m.

Type: Ship (hazmat cat B). MMSI: 538006571.

Date/timePositionNaut miles runAvg speedWind from/ knotsBaromVisibWave heightAir tempDewpointWater temp
2017-Dec-02 23:41N 49°42' W 005°08'315.8
2017-Dec-02 23:30N 49°43' W 005°04'2216.1
2017-Dec-02 22:10N 49°47' W 004°32'316.3
2017-Dec-02 21:59N 49°47' W 004°27'1015.6
2017-Dec-02 21:19N 49°49' W 004°11'913.7
2017-Dec-02 20:38N 49°52' W 003°57'215.0
2017-Dec-02 20:29N 49°52' W 003°54'715.0
2017-Dec-02 20:00N 49°53' W 003°43'714.5
2017-Dec-02 19:29N 49°54' W 003°31'713.9
2017-Dec-02 19:00N 49°56' W 003°21'713.3
2017-Dec-02 18:30N 49°57' W 003°11'613.0
2017-Dec-02 18:01N 49°58' W 003°01'612.9
2017-Dec-02 17:30N 49°59' W 002°51'713.0
2017-Dec-02 17:00N 50°01' W 002°42'1213.4
2017-Dec-02 16:07N 50°04' W 002°24'514.1
2017-Dec-02 15:43N 50°06' W 002°15'814.9
2017-Dec-02 15:10N 50°08' W 002°03'315.6
2017-Dec-02 15:00N 50°09' W 001°59'816.3
2017-Dec-02 14:30N 50°11' W 001°47'917.1
2017-Dec-02 14:01N 50°13' W 001°34'917.4
2017-Dec-02 13:30N 50°16' W 001°21'1716.7
2017-Dec-02 12:30N 50°29' W 001°06'816.1
2017-Dec-02 12:00N 50°37' W 001°01'612.1
2017-Dec-02 11:30N 50°42' W 000°59'612.0
2017-Dec-02 11:00N 50°46' W 001°07'612.2
2017-Dec-02 10:30N 50°47' W 001°17'4 7.9
2017-Dec-02 10:00N 50°50' W 001°19'0 0.0
2017-Dec-01 13:13N 50°50' W 001°20'0 0.0
2017-Dec-01 10:49N 50°50' W 001°20'0 0.0
2017-Dec-01 03:49N 50°50' W 001°20'0 0.0
2017-Nov-30 23:16N 50°50' W 001°20'0 0.0
2017-Nov-30 23:00N 50°50' W 001°20'0 0.0
2017-Nov-30 22:30N 50°50' W 001°20'0 0.6
2017-Nov-30 22:00N 50°50' W 001°19'3 5.4
2017-Nov-30 21:30N 50°47' W 001°19'5 9.4
2017-Nov-30 21:00N 50°46' W 001°12'713.1
2017-Nov-30 20:30N 50°44' W 001°02'4 8.6
2017-Nov-30 20:00N 50°39' W 000°60'2 4.0
2017-Nov-30 19:28N 50°38' W 001°02'0 0.1
2017-Nov-30 18:58N 50°38' W 001°01'0 0.0
2017-Nov-30 18:28N 50°38' W 001°01'0 0.0
2017-Nov-30 17:58N 50°38' W 001°01'0 0.0
2017-Nov-30 17:28N 50°38' W 001°01'0 0.0
2017-Nov-30 16:58N 50°38' W 001°01'0 0.0
2017-Nov-30 16:28N 50°38' W 001°01'0 0.0
2017-Nov-30 15:58N 50°38' W 001°01'0 0.0
2017-Nov-30 15:28N 50°38' W 001°01'0 0.1
2017-Nov-30 14:58N 50°38' W 001°01'0 0.1
2017-Nov-30 14:28N 50°38' W 001°02'0 0.0
2017-Nov-30 13:58N 50°38' W 001°02'0 0.1
2017-Nov-30 13:28N 50°38' W 001°02'0 0.1
2017-Nov-30 12:58N 50°38' W 001°02'0 0.1
2017-Nov-30 12:28N 50°38' W 001°02'0 0.0
2017-Nov-30 11:58N 50°38' W 001°02'0 0.0
2017-Nov-30 11:28N 50°38' W 001°02'0 0.0
2017-Nov-30 10:58N 50°38' W 001°02'0 0.0
2017-Nov-30 10:28N 50°38' W 001°02'0 0.1
2017-Nov-30 09:58N 50°38' W 001°02'0 0.0
2017-Nov-30 09:28N 50°38' W 001°02'0 0.0
2017-Nov-30 08:58N 50°38' W 001°02'0 0.1
2017-Nov-30 08:28N 50°38' W 001°02'0 0.1
2017-Nov-30 07:58N 50°38' W 001°02'0 0.1
2017-Nov-30 07:28N 50°38' W 001°02'0 0.1
2017-Nov-30 06:58N 50°38' W 001°01'0 0.1
2017-Nov-30 06:28N 50°38' W 001°01'0 0.0
2017-Nov-30 05:58N 50°38' W 001°01'0 0.0
2017-Nov-30 05:28N 50°38' W 001°01'0 0.0
2017-Nov-30 04:58N 50°38' W 001°01'0 0.0
2017-Nov-30 04:28N 50°38' W 001°01'0 0.0
2017-Nov-30 03:58N 50°38' W 001°01'0 0.1
2017-Nov-30 03:28N 50°38' W 001°01'0 0.1
2017-Nov-30 02:58N 50°38' W 001°01'0 0.1
2017-Nov-30 02:28N 50°38' W 001°02'0 0.0
2017-Nov-30 01:58N 50°38' W 001°02'0 0.1
2017-Nov-30 01:28N 50°38' W 001°02'0 0.1
2017-Nov-30 00:58N 50°38' W 001°02'0 0.1
2017-Nov-30 00:28N 50°38' W 001°02'0 0.0
2017-Nov-29 23:58N 50°38' W 001°02'0 0.0
2017-Nov-29 23:28N 50°38' W 001°02'0 0.0
2017-Nov-29 22:58N 50°38' W 001°02'0 0.0
2017-Nov-29 22:25N 50°38' W 001°02'0 0.0
2017-Nov-29 21:58N 50°38' W 001°02'0 0.0
2017-Nov-29 21:28N 50°38' W 001°02'0 0.1
2017-Nov-29 20:58N 50°38' W 001°02'0 0.0
2017-Nov-29 20:28N 50°38' W 001°02'0 0.1
2017-Nov-29 19:58N 50°38' W 001°02'0 0.1
2017-Nov-29 19:28N 50°38' W 001°02'0 0.0
2017-Nov-29 18:58N 50°38' W 001°02'0 0.0
2017-Nov-29 18:28N 50°38' W 001°02'0 0.1
2017-Nov-29 17:58N 50°38' W 001°01'0 0.1
2017-Nov-29 17:28N 50°38' W 001°01'0 0.0
2017-Nov-29 16:58N 50°38' W 001°01'0 0.0
2017-Nov-29 16:28N 50°38' W 001°01'0 0.0
2017-Nov-29 15:58N 50°38' W 001°01'0 0.0
2017-Nov-29 15:28N 50°38' W 001°01'0 0.0
2017-Nov-29 14:58N 50°38' W 001°01'0 0.0
2017-Nov-29 14:28N 50°38' W 001°01'0 0.1
2017-Nov-29 13:58N 50°38' W 001°02'0 0.0
2017-Nov-29 13:28N 50°38' W 001°02'0 0.0
2017-Nov-29 12:58N 50°38' W 001°02'0 0.1
2017-Nov-29 12:28N 50°38' W 001°02'0 0.0
2017-Nov-29 11:58N 50°38' W 001°02'0 0.0
2017-Nov-29 11:28N 50°38' W 001°02'0 0.0
2017-Nov-29 10:58N 50°38' W 001°02'0 0.0
2017-Nov-29 10:28N 50°38' W 001°02'0 0.0
2017-Nov-29 09:58N 50°38' W 001°02'0 0.0
2017-Nov-29 09:28N 50°38' W 001°02'0 0.0
2017-Nov-29 08:58N 50°38' W 001°02'0 0.0
2017-Nov-29 08:28N 50°38' W 001°02'0 0.0
2017-Nov-29 07:58N 50°38' W 001°02'0 0.1
2017-Nov-29 07:28N 50°38' W 001°02'0 0.1
2017-Nov-29 06:58N 50°38' W 001°02'0 0.1
2017-Nov-29 06:28N 50°38' W 001°02'0 0.0
2017-Nov-29 05:58N 50°38' W 001°02'0 0.1
2017-Nov-29 05:28N 50°38' W 001°01'0 0.1
2017-Nov-29 04:58N 50°38' W 001°01'0 0.0
2017-Nov-29 04:28N 50°38' W 001°01'0 0.0
2017-Nov-29 03:58N 50°38' W 001°01'0 0.0
2017-Nov-29 03:28N 50°38' W 001°01'0 0.0
2017-Nov-29 02:58N 50°38' W 001°01'0 0.0
2017-Nov-29 02:25N 50°38' W 001°01'0 0.0
2017-Nov-29 01:58N 50°38' W 001°01'0 0.0
2017-Nov-29 01:28N 50°38' W 001°01'0 0.0
2017-Nov-29 00:58N 50°38' W 001°02'0 0.0
2017-Nov-29 00:28N 50°38' W 001°02'0 0.1
2017-Nov-28 23:58N 50°38' W 001°02'0 0.1
2017-Nov-28 23:28N 50°38' W 001°02'0 0.1
2017-Nov-28 22:58N 50°38' W 001°02'0 0.0
2017-Nov-28 22:28N 50°38' W 001°02'0 0.0
2017-Nov-28 21:58N 50°38' W 001°02'0 0.0
2017-Nov-28 21:28N 50°38' W 001°02'0 0.0
2017-Nov-28 20:58N 50°38' W 001°02'0 0.0
2017-Nov-28 20:28N 50°38' W 001°02'0 0.0
2017-Nov-28 19:58N 50°38' W 001°02'0 0.0
2017-Nov-28 19:28N 50°38' W 001°02'0 0.1
2017-Nov-28 18:58N 50°38' W 001°02'0 0.2
2017-Nov-28 18:28N 50°38' W 001°02'0 0.2
2017-Nov-28 17:58N 50°38' W 001°01'0 0.0
2017-Nov-28 17:28N 50°38' W 001°01'0 0.0
2017-Nov-28 16:58N 50°38' W 001°01'0 0.0
2017-Nov-28 16:28N 50°38' W 001°01'0 0.0
2017-Nov-28 15:58N 50°38' W 001°01'0 0.0
2017-Nov-28 14:58N 50°38' W 001°01'0 0.0
2017-Nov-28 14:28N 50°38' W 001°01'0 0.0
2017-Nov-28 13:58N 50°38' W 001°01'0 0.0
2017-Nov-28 13:25N 50°38' W 001°01'0 0.0
2017-Nov-28 12:58N 50°38' W 001°01'0 0.1
2017-Nov-28 12:28N 50°38' W 001°01'0 0.0
2017-Nov-28 11:58N 50°38' W 001°02'0 0.1
2017-Nov-28 11:28N 50°38' W 001°02'0 0.1
2017-Nov-28 10:58N 50°38' W 001°02'0 0.1
2017-Nov-28 10:28N 50°38' W 001°02'0 0.1
2017-Nov-28 09:58N 50°38' W 001°02'0 0.0
2017-Nov-28 09:28N 50°38' W 001°02'0 0.0
2017-Nov-28 08:58N 50°38' W 001°02'0 0.0
2017-Nov-28 08:28N 50°38' W 001°02'0 0.0
2017-Nov-28 07:58N 50°38' W 001°02'0 0.0
2017-Nov-28 07:28N 50°38' W 001°02'0 0.1
2017-Nov-28 06:58N 50°38' W 001°02'0 0.2
2017-Nov-28 06:28N 50°38' W 001°01'0 0.1
2017-Nov-28 05:58N 50°38' W 001°01'0 0.0
2017-Nov-28 05:28N 50°38' W 001°01'0 0.0
2017-Nov-28 04:28N 50°38' W 001°01'0 0.0
2017-Nov-28 03:58N 50°38' W 001°01'0 0.0
2017-Nov-28 03:28N 50°38' W 001°01'0 0.0
2017-Nov-28 02:58N 50°38' W 001°01'0 0.0
2017-Nov-28 02:28N 50°38' W 001°01'0 0.0
2017-Nov-28 01:58N 50°38' W 001°01'0 0.0
2017-Nov-28 01:28N 50°38' W 001°01'0 0.0
2017-Nov-28 00:58N 50°38' W 001°01'0 0.0
2017-Nov-28 00:28N 50°38' W 001°01'0 0.0
2017-Nov-27 23:58N 50°38' W 001°01'0 0.0
2017-Nov-27 23:28N 50°38' W 001°01'0 0.0
2017-Nov-27 22:58N 50°38' W 001°01'0 0.0
2017-Nov-27 22:28N 50°38' W 001°01'0 0.1
2017-Nov-27 21:58N 50°38' W 001°01'0 0.1
2017-Nov-27 21:28N 50°38' W 001°02'0 0.1
2017-Nov-27 20:58N 50°38' W 001°02'0 0.1
2017-Nov-27 20:28N 50°38' W 001°02'0 0.0
2017-Nov-27 19:58N 50°38' W 001°02'0 0.1
2017-Nov-27 19:28N 50°38' W 001°02'0 0.1
2017-Nov-27 18:58N 50°38' W 001°02'0 0.1
2017-Nov-27 18:28N 50°38' W 001°01'0 0.1
2017-Nov-27 17:58N 50°38' W 001°01'0 0.0
2017-Nov-27 17:28N 50°38' W 001°01'0 0.0
2017-Nov-27 16:58N 50°38' W 001°01'0 0.0
2017-Nov-27 16:25N 50°38' W 001°01'0 0.0
2017-Nov-27 15:58N 50°38' W 001°01'0 0.0
2017-Nov-27 15:28N 50°38' W 001°01'0 0.5
2017-Nov-27 15:00N 50°38' W 001°01'4 8.0
2017-Nov-27 14:30N 50°37' W 000°55'5 9.0
2017-Nov-27 14:00N 50°35' W 000°49'4 7.7
2017-Nov-27 13:30N 50°33' W 000°44'1 1.3
2017-Nov-27 13:00N 50°32' W 000°43'1 1.0
2017-Nov-27 12:30N 50°33' W 000°42'1 1.7
2017-Nov-27 12:00N 50°33' W 000°41'1 1.9
2017-Nov-27 11:30N 50°33' W 000°40'1 2.2
2017-Nov-27 10:59N 50°33' W 000°38'1 2.0
2017-Nov-27 10:30N 50°33' W 000°36'1 2.8
2017-Nov-27 10:00N 50°34' W 000°38'4 8.6
2017-Nov-27 09:30N 50°33' W 000°45'4 8.4
2017-Nov-27 09:00N 50°33' W 000°52'611.2
2017-Nov-27 08:30N 50°27' W 000°55'2513.7
2017-Nov-27 06:39N 50°02' W 000°56'314.4
2017-Nov-27 06:28N 49°59' W 000°56'1113.9
2017-Nov-27 05:41N 49°50' W 000°46'314.7
2017-Nov-27 05:30N 49°49' W 000°43'714.7
2017-Nov-27 05:00N 49°43' W 000°35'714.4
2017-Nov-27 04:30N 49°39' W 000°26'714.4
2017-Nov-27 04:00N 49°34' W 000°18'714.1
2017-Nov-27 03:30N 49°32' W 000°07'510.6
2017-Nov-27 03:00N 49°30' E 000°00'611.2
2017-Nov-27 02:30N 49°28' E 000°08'1 2.8
2017-Nov-27 02:00N 49°29' E 000°10'1 2.1
2017-Nov-27 01:31N 49°28' E 000°12'2 2.9
2017-Nov-27 00:59N 49°28' E 000°14'0 0.0
2017-Nov-27 00:29N 49°28' E 000°14'0 0.0
2017-Nov-26 23:59N 49°28' E 000°14'0 0.0
2017-Nov-26 23:29N 49°28' E 000°14'0 0.0
2017-Nov-26 22:59N 49°28' E 000°14'0 0.0
2017-Nov-26 22:29N 49°28' E 000°14'0 0.0
2017-Nov-26 21:59N 49°28' E 000°14'0 0.0
2017-Nov-26 21:29N 49°28' E 000°14'0 0.0
2017-Nov-26 20:59N 49°28' E 000°14'0 0.0
2017-Nov-26 20:29N 49°28' E 000°14'0 0.0
2017-Nov-26 19:59N 49°28' E 000°14'0 0.0
2017-Nov-26 19:29N 49°28' E 000°14'0 0.0
2017-Nov-26 18:59N 49°28' E 000°14'0 0.0
2017-Nov-26 18:29N 49°28' E 000°14'0 0.0
2017-Nov-26 17:59N 49°28' E 000°14'0 0.0
2017-Nov-26 17:29N 49°28' E 000°14'0 0.0
2017-Nov-26 16:59N 49°28' E 000°14'0 0.0
2017-Nov-26 16:29N 49°28' E 000°14'0 0.0
2017-Nov-26 15:59N 49°28' E 000°14'0 0.0
2017-Nov-26 15:29N 49°28' E 000°14'0 0.0
2017-Nov-26 14:59N 49°28' E 000°14'0 0.0
2017-Nov-26 14:29N 49°28' E 000°14'0 0.0
2017-Nov-26 13:59N 49°28' E 000°14'0 0.0
2017-Nov-26 13:29N 49°28' E 000°14'0 0.0
2017-Nov-26 12:59N 49°28' E 000°14'0 0.0
2017-Nov-26 12:29N 49°28' E 000°14'0 0.0
2017-Nov-26 11:59N 49°28' E 000°14'0 0.0
2017-Nov-26 11:29N 49°28' E 000°14'0 0.0
2017-Nov-26 10:59N 49°28' E 000°14'0 0.0
2017-Nov-26 10:29N 49°28' E 000°14'0 0.0
2017-Nov-26 09:59N 49°28' E 000°14'0 0.0
2017-Nov-26 09:29N 49°28' E 000°14'0 0.0
2017-Nov-26 09:00N 49°28' E 000°14'0 0.0
2017-Nov-26 08:30N 49°28' E 000°14'1 2.3
2017-Nov-26 08:00N 49°28' E 000°12'1 2.8
2017-Nov-26 07:30N 49°29' E 000°10'0 0.9
2017-Nov-26 07:00N 49°28' E 000°10'2 4.9
2017-Nov-26 06:30N 49°29' E 000°06'611.7
2017-Nov-26 06:00N 49°30' W 000°03'510.4
2017-Nov-26 05:30N 49°32' W 000°10'510.1
2017-Nov-26 05:00N 49°37' W 000°09'4 8.0
2017-Nov-26 04:30N 49°41' W 000°09'4 7.9
2017-Nov-26 04:00N 49°45' W 000°09'4 7.8
2017-Nov-26 03:30N 49°49' W 000°09'4 7.7
2017-Nov-26 03:00N 49°53' W 000°09'4 7.5
2017-Nov-26 02:30N 49°57' W 000°09'510.9
2017-Nov-26 02:00N 50°02' W 000°09'612.6
2017-Nov-26 01:30N 50°08' W 000°09'813.8
2017-Nov-26 00:56N 50°16' W 000°08'613.7
2017-Nov-26 00:30N 50°22' W 000°06'612.7
2017-Nov-26 00:00N 50°28' W 000°02'612.8
2017-Nov-25 23:30N 50°30' E 000°08'713.1
2017-Nov-25 23:01N 50°32' E 000°17'713.5
2017-Nov-25 22:31N 50°34' E 000°27'713.8
2017-Nov-25 22:00N 50°37' E 000°37'714.5
2017-Nov-25 21:30N 50°41' E 000°47'714.8
2017-Nov-25 21:00N 50°46' E 000°56'715.0
2017-Nov-25 20:30N 50°51' E 001°05'814.8
2017-Nov-25 19:57N 50°57' E 001°13'614.4
2017-Nov-25 19:30N 51°01' E 001°21'713.9
2017-Nov-25 19:00N 51°05' E 001°30'713.2
2017-Nov-25 18:30N 51°10' E 001°38'612.9
2017-Nov-25 18:01N 51°14' E 001°46'612.7
2017-Nov-25 17:31N 51°19' E 001°52'713.0
2017-Nov-25 17:00N 51°25' E 001°56'612.8
2017-Nov-25 16:30N 51°30' E 002°02'713.3
2017-Nov-25 16:00N 51°35' E 002°09'6113.1
2017-Nov-25 11:20N 52°03' E 003°37'514.2
2017-Nov-25 11:00N 52°02' E 003°45'612.7
2017-Nov-25 10:30N 52°02' E 003°55'5 9.3
2017-Nov-25 10:00N 51°60' E 004°02'611.8
2017-Nov-25 09:30N 51°57' E 004°10'611.4
2017-Nov-25 09:00N 51°54' E 004°18'2 3.1
2017-Nov-25 08:29N 51°52' E 004°16'0 0.0
2017-Nov-25 07:56N 51°52' E 004°16'0 0.0
2017-Nov-25 07:29N 51°52' E 004°16'0 0.0
2017-Nov-25 06:59N 51°52' E 004°16'0 0.0
2017-Nov-25 06:23N 51°52' E 004°16'0 0.0
2017-Nov-25 05:17N 51°52' E 004°16'0 0.0
2017-Nov-25 04:56N 51°52' E 004°16'0 0.0
2017-Nov-25 04:26N 51°52' E 004°16'0 0.0
2017-Nov-25 03:59N 51°52' E 004°16'0 0.0
2017-Nov-25 03:23N 51°52' E 004°16'0 0.0
2017-Nov-25 02:59N 51°52' E 004°16'0 0.0
2017-Nov-25 02:20N 51°52' E 004°16'0 0.0
2017-Nov-25 01:56N 51°52' E 004°16'0 0.0
2017-Nov-25 01:29N 51°52' E 004°16'0 0.0
2017-Nov-25 00:50N 51°52' E 004°16'0 0.0
2017-Nov-25 00:26N 51°52' E 004°16'0 0.0
2017-Nov-24 23:26N 51°52' E 004°16'0 0.0
2017-Nov-24 22:59N 51°52' E 004°16'0 0.0
2017-Nov-24 22:26N 51°52' E 004°16'0 0.0
2017-Nov-24 21:56N 51°52' E 004°16'0 0.0
2017-Nov-24 21:29N 51°52' E 004°16'0 0.0
2017-Nov-24 20:59N 51°52' E 004°16'0 0.0
2017-Nov-24 20:29N 51°52' E 004°16'0 0.0
2017-Nov-24 19:20N 51°52' E 004°16'0 0.0
2017-Nov-24 18:56N 51°52' E 004°16'0 0.0
2017-Nov-24 18:29N 51°52' E 004°16'0 0.0
2017-Nov-24 17:44N 51°52' E 004°16'0 0.0
2017-Nov-24 17:29N 51°52' E 004°16'0 0.0
2017-Nov-24 16:56N 51°52' E 004°16'0 0.0
2017-Nov-24 16:26N 51°52' E 004°16'0 0.0
2017-Nov-24 15:08N 51°52' E 004°16'0 0.0
2017-Nov-24 14:59N 51°52' E 004°16'0 0.0
2017-Nov-24 14:14N 51°52' E 004°16'0 0.0
2017-Nov-24 13:56N 51°52' E 004°16'0 0.0
2017-Nov-24 12:35N 51°52' E 004°16'0 0.1
2017-Nov-24 12:29N 51°52' E 004°16'0 0.0
2017-Nov-24 11:59N 51°52' E 004°16'0 0.0
2017-Nov-24 11:20N 51°52' E 004°16'0 0.0
2017-Nov-24 10:59N 51°52' E 004°16'0 0.0
2017-Nov-24 10:26N 51°52' E 004°16'0 0.0
2017-Nov-24 09:59N 51°52' E 004°16'0 0.0
2017-Nov-24 09:29N 51°52' E 004°16'0 0.0
2017-Nov-24 08:56N 51°52' E 004°16'0 0.0
2017-Nov-24 08:26N 51°52' E 004°16'0 0.0
2017-Nov-24 07:50N 51°52' E 004°16'0 0.0
2017-Nov-24 07:29N 51°52' E 004°16'0 0.0
2017-Nov-24 06:59N 51°52' E 004°16'0 0.0
2017-Nov-24 06:26N 51°52' E 004°16'0 0.0
2017-Nov-24 05:47N 51°52' E 004°16'0 0.0
2017-Nov-24 05:29N 51°52' E 004°16'0 0.0
2017-Nov-24 04:50N 51°52' E 004°16'0 0.0
2017-Nov-24 04:26N 51°52' E 004°16'0 0.0
2017-Nov-24 03:47N 51°52' E 004°16'0 0.0
2017-Nov-24 03:26N 51°52' E 004°16'0 0.0
2017-Nov-24 02:53N 51°52' E 004°16'0 0.0
2017-Nov-24 02:29N 51°52' E 004°16'0 0.0
2017-Nov-24 01:50N 51°52' E 004°16'0 0.0
2017-Nov-24 01:26N 51°52' E 004°16'0 0.0
2017-Nov-24 00:59N 51°52' E 004°16'0 0.0
2017-Nov-24 00:29N 51°52' E 004°16'0 0.0
2017-Nov-23 23:59N 51°52' E 004°16'0 0.0
2017-Nov-23 23:17N 51°52' E 004°16'0 0.0
2017-Nov-23 22:56N 51°52' E 004°16'0 0.0
2017-Nov-23 22:29N 51°52' E 004°16'0 0.0
2017-Nov-23 21:41N 51°52' E 004°16'0 0.0
2017-Nov-23 21:29N 51°52' E 004°16'0 0.0
2017-Nov-23 20:59N 51°52' E 004°16'0 0.0
2017-Nov-23 20:29N 51°52' E 004°16'0 0.0
2017-Nov-23 19:53N 51°52' E 004°16'0 0.0
2017-Nov-23 19:23N 51°52' E 004°16'0 0.0
2017-Nov-23 18:59N 51°52' E 004°16'0 0.0
2017-Nov-23 18:20N 51°52' E 004°16'0 0.0
2017-Nov-23 17:59N 51°52' E 004°16'0 0.0
2017-Nov-23 17:29N 51°52' E 004°16'0 0.0
2017-Nov-23 16:59N 51°52' E 004°16'0 0.0
2017-Nov-23 16:29N 51°52' E 004°16'0 0.0
2017-Nov-23 15:59N 51°52' E 004°16'0 0.0
2017-Nov-23 15:30N 51°52' E 004°16'0 0.0
2017-Nov-23 15:00N 51°52' E 004°16'0 0.0
2017-Nov-23 14:30N 51°52' E 004°16'0 0.0
2017-Nov-23 14:00N 51°52' E 004°16'0 0.0
2017-Nov-23 13:30N 51°52' E 004°16'0 0.0
2017-Nov-23 13:00N 51°52' E 004°16'0 0.0
2017-Nov-23 12:30N 51°52' E 004°16'0 0.0
2017-Nov-23 12:00N 51°52' E 004°16'0 0.0
2017-Nov-23 11:30N 51°52' E 004°16'0 0.0
2017-Nov-23 11:00N 51°52' E 004°16'1 2.2
2017-Nov-23 10:30N 51°53' E 004°18'1 2.1
2017-Nov-23 10:00N 51°53' E 004°19'0 0.0
2017-Nov-23 09:25N 51°53' E 004°19'0 0.0
2017-Nov-23 08:43N 51°53' E 004°19'0 0.0
2017-Nov-23 08:25N 51°53' E 004°19'0 0.0
2017-Nov-23 07:58N 51°53' E 004°19'0 0.0
2017-Nov-23 07:22N 51°53' E 004°19'0 0.0
2017-Nov-23 06:58N 51°53' E 004°19'0 0.0
2017-Nov-23 06:25N 51°53' E 004°19'0 0.0
2017-Nov-23 05:55N 51°53' E 004°19'0 0.0
2017-Nov-23 05:22N 51°53' E 004°19'0 0.0
2017-Nov-23 04:58N 51°53' E 004°19'0 0.0
2017-Nov-23 04:28N 51°53' E 004°19'0 0.0
2017-Nov-23 03:58N 51°53' E 004°19'0 0.0
2017-Nov-23 03:28N 51°53' E 004°19'0 0.0
2017-Nov-23 02:58N 51°53' E 004°19'0 0.0
2017-Nov-23 02:28N 51°53' E 004°19'0 0.0
2017-Nov-23 01:55N 51°53' E 004°19'0 0.0
2017-Nov-23 01:28N 51°53' E 004°19'0 0.0
2017-Nov-23 00:58N 51°53' E 004°19'0 0.0
2017-Nov-23 00:28N 51°53' E 004°19'0 0.0
2017-Nov-22 23:55N 51°53' E 004°19'  
Track history (hours):
 
Tides and Currents Weather Stations Pressure Air Temp Water Temp Dewpoint Dewpoint Depression Visibility Wind Speed Wind Dir Waves Ship Positions

Chembulk Savannah

Last reported at 2017-Dec-02 23:41 UTC. Time now 2017-Dec-16 11:09 UTC.
Position N 49°42' W 005°08'.
Warning: this ship's position is 13 days out of date.

Length 153 m; draft 7.9 m.

Type: Ship (hazmat cat B). MMSI: 538006571.

Date/timePositionNaut miles runAvg speedWind from/ knotsBaromVisibWave heightAir tempDewpointWater temp
2017-Dec-02 23:41N 49°42' W 005°08'315.8
2017-Dec-02 23:30N 49°43' W 005°04'2216.1
2017-Dec-02 22:10N 49°47' W 004°32'316.3
2017-Dec-02 21:59N 49°47' W 004°27'1015.6
2017-Dec-02 21:19N 49°49' W 004°11'913.7
2017-Dec-02 20:38N 49°52' W 003°57'215.0
2017-Dec-02 20:29N 49°52' W 003°54'715.0
2017-Dec-02 20:00N 49°53' W 003°43'714.5
2017-Dec-02 19:29N 49°54' W 003°31'713.9
2017-Dec-02 19:00N 49°56' W 003°21'713.3
2017-Dec-02 18:30N 49°57' W 003°11'613.0
2017-Dec-02 18:01N 49°58' W 003°01'612.9
2017-Dec-02 17:30N 49°59' W 002°51'713.0
2017-Dec-02 17:00N 50°01' W 002°42'1213.4
2017-Dec-02 16:07N 50°04' W 002°24'514.1
2017-Dec-02 15:43N 50°06' W 002°15'814.9
2017-Dec-02 15:10N 50°08' W 002°03'315.6
2017-Dec-02 15:00N 50°09' W 001°59'816.3
2017-Dec-02 14:30N 50°11' W 001°47'917.1
2017-Dec-02 14:01N 50°13' W 001°34'917.4
2017-Dec-02 13:30N 50°16' W 001°21'1716.7
2017-Dec-02 12:30N 50°29' W 001°06'816.1
2017-Dec-02 12:00N 50°37' W 001°01'612.1
2017-Dec-02 11:30N 50°42' W 000°59'612.0
2017-Dec-02 11:00N 50°46' W 001°07'612.2
2017-Dec-02 10:30N 50°47' W 001°17'4 7.9
2017-Dec-02 10:00N 50°50' W 001°19'0 0.0
2017-Dec-01 13:13N 50°50' W 001°20'0 0.0
2017-Dec-01 10:49N 50°50' W 001°20'0 0.0
2017-Dec-01 03:49N 50°50' W 001°20'0 0.0
2017-Nov-30 23:16N 50°50' W 001°20'0 0.0
2017-Nov-30 23:00N 50°50' W 001°20'0 0.0
2017-Nov-30 22:30N 50°50' W 001°20'0 0.6
2017-Nov-30 22:00N 50°50' W 001°19'3 5.4
2017-Nov-30 21:30N 50°47' W 001°19'5 9.4
2017-Nov-30 21:00N 50°46' W 001°12'713.1
2017-Nov-30 20:30N 50°44' W 001°02'4 8.6
2017-Nov-30 20:00N 50°39' W 000°60'2 4.0
2017-Nov-30 19:28N 50°38' W 001°02'0 0.1
2017-Nov-30 18:58N 50°38' W 001°01'0 0.0
2017-Nov-30 18:28N 50°38' W 001°01'0 0.0
2017-Nov-30 17:58N 50°38' W 001°01'0 0.0
2017-Nov-30 17:28N 50°38' W 001°01'0 0.0
2017-Nov-30 16:58N 50°38' W 001°01'0 0.0
2017-Nov-30 16:28N 50°38' W 001°01'0 0.0
2017-Nov-30 15:58N 50°38' W 001°01'0 0.0
2017-Nov-30 15:28N 50°38' W 001°01'0 0.1
2017-Nov-30 14:58N 50°38' W 001°01'0 0.1
2017-Nov-30 14:28N 50°38' W 001°02'0 0.0
2017-Nov-30 13:58N 50°38' W 001°02'0 0.1
2017-Nov-30 13:28N 50°38' W 001°02'0 0.1
2017-Nov-30 12:58N 50°38' W 001°02'0 0.1
2017-Nov-30 12:28N 50°38' W 001°02'0 0.0
2017-Nov-30 11:58N 50°38' W 001°02'0 0.0
2017-Nov-30 11:28N 50°38' W 001°02'0 0.0
2017-Nov-30 10:58N 50°38' W 001°02'0 0.0
2017-Nov-30 10:28N 50°38' W 001°02'0 0.1
2017-Nov-30 09:58N 50°38' W 001°02'0 0.0
2017-Nov-30 09:28N 50°38' W 001°02'0 0.0
2017-Nov-30 08:58N 50°38' W 001°02'0 0.1
2017-Nov-30 08:28N 50°38' W 001°02'0 0.1
2017-Nov-30 07:58N 50°38' W 001°02'0 0.1
2017-Nov-30 07:28N 50°38' W 001°02'0 0.1
2017-Nov-30 06:58N 50°38' W 001°01'0 0.1
2017-Nov-30 06:28N 50°38' W 001°01'0 0.0
2017-Nov-30 05:58N 50°38' W 001°01'0 0.0
2017-Nov-30 05:28N 50°38' W 001°01'0 0.0
2017-Nov-30 04:58N 50°38' W 001°01'0 0.0
2017-Nov-30 04:28N 50°38' W 001°01'0 0.0
2017-Nov-30 03:58N 50°38' W 001°01'0 0.1
2017-Nov-30 03:28N 50°38' W 001°01'0 0.1
2017-Nov-30 02:58N 50°38' W 001°01'0 0.1
2017-Nov-30 02:28N 50°38' W 001°02'0 0.0
2017-Nov-30 01:58N 50°38' W 001°02'0 0.1
2017-Nov-30 01:28N 50°38' W 001°02'0 0.1
2017-Nov-30 00:58N 50°38' W 001°02'0 0.1
2017-Nov-30 00:28N 50°38' W 001°02'0 0.0
2017-Nov-29 23:58N 50°38' W 001°02'0 0.0
2017-Nov-29 23:28N 50°38' W 001°02'0 0.0
2017-Nov-29 22:58N 50°38' W 001°02'0 0.0
2017-Nov-29 22:25N 50°38' W 001°02'0 0.0
2017-Nov-29 21:58N 50°38' W 001°02'0 0.0
2017-Nov-29 21:28N 50°38' W 001°02'0 0.1
2017-Nov-29 20:58N 50°38' W 001°02'0 0.0
2017-Nov-29 20:28N 50°38' W 001°02'0 0.1
2017-Nov-29 19:58N 50°38' W 001°02'0 0.1
2017-Nov-29 19:28N 50°38' W 001°02'0 0.0
2017-Nov-29 18:58N 50°38' W 001°02'0 0.0
2017-Nov-29 18:28N 50°38' W 001°02'0 0.1
2017-Nov-29 17:58N 50°38' W 001°01'0 0.1
2017-Nov-29 17:28N 50°38' W 001°01'0 0.0
2017-Nov-29 16:58N 50°38' W 001°01'0 0.0
2017-Nov-29 16:28N 50°38' W 001°01'0 0.0
2017-Nov-29 15:58N 50°38' W 001°01'0 0.0
2017-Nov-29 15:28N 50°38' W 001°01'0 0.0
2017-Nov-29 14:58N 50°38' W 001°01'0 0.0
2017-Nov-29 14:28N 50°38' W 001°01'0 0.1
2017-Nov-29 13:58N 50°38' W 001°02'0 0.0
2017-Nov-29 13:28N 50°38' W 001°02'0 0.0
2017-Nov-29 12:58N 50°38' W 001°02'0 0.1
2017-Nov-29 12:28N 50°38' W 001°02'0 0.0
2017-Nov-29 11:58N 50°38' W 001°02'0 0.0
2017-Nov-29 11:28N 50°38' W 001°02'0 0.0
2017-Nov-29 10:58N 50°38' W 001°02'0 0.0
2017-Nov-29 10:28N 50°38' W 001°02'0 0.0
2017-Nov-29 09:58N 50°38' W 001°02'0 0.0
2017-Nov-29 09:28N 50°38' W 001°02'0 0.0
2017-Nov-29 08:58N 50°38' W 001°02'0 0.0
2017-Nov-29 08:28N 50°38' W 001°02'0 0.0
2017-Nov-29 07:58N 50°38' W 001°02'0 0.1
2017-Nov-29 07:28N 50°38' W 001°02'0 0.1
2017-Nov-29 06:58N 50°38' W 001°02'0 0.1
2017-Nov-29 06:28N 50°38' W 001°02'0 0.0
2017-Nov-29 05:58N 50°38' W 001°02'0 0.1
2017-Nov-29 05:28N 50°38' W 001°01'0 0.1
2017-Nov-29 04:58N 50°38' W 001°01'0 0.0
2017-Nov-29 04:28N 50°38' W 001°01'0 0.0
2017-Nov-29 03:58N 50°38' W 001°01'0 0.0
2017-Nov-29 03:28N 50°38' W 001°01'0 0.0
2017-Nov-29 02:58N 50°38' W 001°01'0 0.0
2017-Nov-29 02:25N 50°38' W 001°01'0 0.0
2017-Nov-29 01:58N 50°38' W 001°01'0 0.0
2017-Nov-29 01:28N 50°38' W 001°01'0 0.0
2017-Nov-29 00:58N 50°38' W 001°02'0 0.0
2017-Nov-29 00:28N 50°38' W 001°02'0 0.1
2017-Nov-28 23:58N 50°38' W 001°02'0 0.1
2017-Nov-28 23:28N 50°38' W 001°02'0 0.1
2017-Nov-28 22:58N 50°38' W 001°02'0 0.0
2017-Nov-28 22:28N 50°38' W 001°02'0 0.0
2017-Nov-28 21:58N 50°38' W 001°02'0 0.0
2017-Nov-28 21:28N 50°38' W 001°02'0 0.0
2017-Nov-28 20:58N 50°38' W 001°02'0 0.0
2017-Nov-28 20:28N 50°38' W 001°02'0 0.0
2017-Nov-28 19:58N 50°38' W 001°02'0 0.0
2017-Nov-28 19:28N 50°38' W 001°02'0 0.1
2017-Nov-28 18:58N 50°38' W 001°02'0 0.2
2017-Nov-28 18:28N 50°38' W 001°02'0 0.2
2017-Nov-28 17:58N 50°38' W 001°01'0 0.0
2017-Nov-28 17:28N 50°38' W 001°01'0 0.0
2017-Nov-28 16:58N 50°38' W 001°01'0 0.0
2017-Nov-28 16:28N 50°38' W 001°01'0 0.0
2017-Nov-28 15:58N 50°38' W 001°01'0 0.0
2017-Nov-28 14:58N 50°38' W 001°01'0 0.0
2017-Nov-28 14:28N 50°38' W 001°01'0 0.0
2017-Nov-28 13:58N 50°38' W 001°01'0 0.0
2017-Nov-28 13:25N 50°38' W 001°01'0 0.0
2017-Nov-28 12:58N 50°38' W 001°01'0 0.1
2017-Nov-28 12:28N 50°38' W 001°01'0 0.0
2017-Nov-28 11:58N 50°38' W 001°02'0 0.1
2017-Nov-28 11:28N 50°38' W 001°02'0 0.1
2017-Nov-28 10:58N 50°38' W 001°02'0 0.1
2017-Nov-28 10:28N 50°38' W 001°02'0 0.1
2017-Nov-28 09:58N 50°38' W 001°02'0 0.0
2017-Nov-28 09:28N 50°38' W 001°02'0 0.0
2017-Nov-28 08:58N 50°38' W 001°02'0 0.0
2017-Nov-28 08:28N 50°38' W 001°02'0 0.0
2017-Nov-28 07:58N 50°38' W 001°02'0 0.0
2017-Nov-28 07:28N 50°38' W 001°02'0 0.1
2017-Nov-28 06:58N 50°38' W 001°02'0 0.2
2017-Nov-28 06:28N 50°38' W 001°01'0 0.1
2017-Nov-28 05:58N 50°38' W 001°01'0 0.0
2017-Nov-28 05:28N 50°38' W 001°01'0 0.0
2017-Nov-28 04:28N 50°38' W 001°01'0 0.0
2017-Nov-28 03:58N 50°38' W 001°01'0 0.0
2017-Nov-28 03:28N 50°38' W 001°01'0 0.0
2017-Nov-28 02:58N 50°38' W 001°01'0 0.0
2017-Nov-28 02:28N 50°38' W 001°01'0 0.0
2017-Nov-28 01:58N 50°38' W 001°01'0 0.0
2017-Nov-28 01:28N 50°38' W 001°01'0 0.0
2017-Nov-28 00:58N 50°38' W 001°01'0 0.0
2017-Nov-28 00:28N 50°38' W 001°01'0 0.0
2017-Nov-27 23:58N 50°38' W 001°01'0 0.0
2017-Nov-27 23:28N 50°38' W 001°01'0 0.0
2017-Nov-27 22:58N 50°38' W 001°01'0 0.0
2017-Nov-27 22:28N 50°38' W 001°01'0 0.1
2017-Nov-27 21:58N 50°38' W 001°01'0 0.1
2017-Nov-27 21:28N 50°38' W 001°02'0 0.1
2017-Nov-27 20:58N 50°38' W 001°02'0 0.1
2017-Nov-27 20:28N 50°38' W 001°02'0 0.0
2017-Nov-27 19:58N 50°38' W 001°02'0 0.1
2017-Nov-27 19:28N 50°38' W 001°02'0 0.1
2017-Nov-27 18:58N 50°38' W 001°02'0 0.1
2017-Nov-27 18:28N 50°38' W 001°01'0 0.1
2017-Nov-27 17:58N 50°38' W 001°01'0 0.0
2017-Nov-27 17:28N 50°38' W 001°01'0 0.0
2017-Nov-27 16:58N 50°38' W 001°01'0 0.0
2017-Nov-27 16:25N 50°38' W 001°01'0 0.0
2017-Nov-27 15:58N 50°38' W 001°01'0 0.0
2017-Nov-27 15:28N 50°38' W 001°01'0 0.5
2017-Nov-27 15:00N 50°38' W 001°01'4 8.0
2017-Nov-27 14:30N 50°37' W 000°55'5 9.0
2017-Nov-27 14:00N 50°35' W 000°49'4 7.7
2017-Nov-27 13:30N 50°33' W 000°44'1 1.3
2017-Nov-27 13:00N 50°32' W 000°43'1 1.0
2017-Nov-27 12:30N 50°33' W 000°42'1 1.7
2017-Nov-27 12:00N 50°33' W 000°41'1 1.9
2017-Nov-27 11:30N 50°33' W 000°40'1 2.2
2017-Nov-27 10:59N 50°33' W 000°38'1 2.0
2017-Nov-27 10:30N 50°33' W 000°36'1 2.8
2017-Nov-27 10:00N 50°34' W 000°38'4 8.6
2017-Nov-27 09:30N 50°33' W 000°45'4 8.4
2017-Nov-27 09:00N 50°33' W 000°52'611.2
2017-Nov-27 08:30N 50°27' W 000°55'2513.7
2017-Nov-27 06:39N 50°02' W 000°56'314.4
2017-Nov-27 06:28N 49°59' W 000°56'1113.9
2017-Nov-27 05:41N 49°50' W 000°46'314.7
2017-Nov-27 05:30N 49°49' W 000°43'714.7
2017-Nov-27 05:00N 49°43' W 000°35'714.4
2017-Nov-27 04:30N 49°39' W 000°26'714.4
2017-Nov-27 04:00N 49°34' W 000°18'714.1
2017-Nov-27 03:30N 49°32' W 000°07'510.6
2017-Nov-27 03:00N 49°30' E 000°00'611.2
2017-Nov-27 02:30N 49°28' E 000°08'1 2.8
2017-Nov-27 02:00N 49°29' E 000°10'1 2.1
2017-Nov-27 01:31N 49°28' E 000°12'2 2.9
2017-Nov-27 00:59N 49°28' E 000°14'0 0.0
2017-Nov-27 00:29N 49°28' E 000°14'0 0.0
2017-Nov-26 23:59N 49°28' E 000°14'0 0.0
2017-Nov-26 23:29N 49°28' E 000°14'0 0.0
2017-Nov-26 22:59N 49°28' E 000°14'0 0.0
2017-Nov-26 22:29N 49°28' E 000°14'0 0.0
2017-Nov-26 21:59N 49°28' E 000°14'0 0.0
2017-Nov-26 21:29N 49°28' E 000°14'0 0.0
2017-Nov-26 20:59N 49°28' E 000°14'0 0.0
2017-Nov-26 20:29N 49°28' E 000°14'0 0.0
2017-Nov-26 19:59N 49°28' E 000°14'0 0.0
2017-Nov-26 19:29N 49°28' E 000°14'0 0.0
2017-Nov-26 18:59N 49°28' E 000°14'0 0.0
2017-Nov-26 18:29N 49°28' E 000°14'0 0.0
2017-Nov-26 17:59N 49°28' E 000°14'0 0.0
2017-Nov-26 17:29N 49°28' E 000°14'0 0.0
2017-Nov-26 16:59N 49°28' E 000°14'0 0.0
2017-Nov-26 16:29N 49°28' E 000°14'0 0.0
2017-Nov-26 15:59N 49°28' E 000°14'0 0.0
2017-Nov-26 15:29N 49°28' E 000°14'0 0.0
2017-Nov-26 14:59N 49°28' E 000°14'0 0.0
2017-Nov-26 14:29N 49°28' E 000°14'0 0.0
2017-Nov-26 13:59N 49°28' E 000°14'0 0.0
2017-Nov-26 13:29N 49°28' E 000°14'0 0.0
2017-Nov-26 12:59N 49°28' E 000°14'0 0.0
2017-Nov-26 12:29N 49°28' E 000°14'0 0.0
2017-Nov-26 11:59N 49°28' E 000°14'0 0.0
2017-Nov-26 11:29N 49°28' E 000°14'0 0.0
2017-Nov-26 10:59N 49°28' E 000°14'0 0.0
2017-Nov-26 10:29N 49°28' E 000°14'0 0.0
2017-Nov-26 09:59N 49°28' E 000°14'0 0.0
2017-Nov-26 09:29N 49°28' E 000°14'0 0.0
2017-Nov-26 09:00N 49°28' E 000°14'0 0.0
2017-Nov-26 08:30N 49°28' E 000°14'1 2.3
2017-Nov-26 08:00N 49°28' E 000°12'1 2.8
2017-Nov-26 07:30N 49°29' E 000°10'0 0.9
2017-Nov-26 07:00N 49°28' E 000°10'2 4.9
2017-Nov-26 06:30N 49°29' E 000°06'611.7
2017-Nov-26 06:00N 49°30' W 000°03'510.4
2017-Nov-26 05:30N 49°32' W 000°10'510.1
2017-Nov-26 05:00N 49°37' W 000°09'4 8.0
2017-Nov-26 04:30N 49°41' W 000°09'4 7.9
2017-Nov-26 04:00N 49°45' W 000°09'4 7.8
2017-Nov-26 03:30N 49°49' W 000°09'4 7.7
2017-Nov-26 03:00N 49°53' W 000°09'4 7.5
2017-Nov-26 02:30N 49°57' W 000°09'510.9
2017-Nov-26 02:00N 50°02' W 000°09'612.6
2017-Nov-26 01:30N 50°08' W 000°09'813.8
2017-Nov-26 00:56N 50°16' W 000°08'613.7
2017-Nov-26 00:30N 50°22' W 000°06'612.7
2017-Nov-26 00:00N 50°28' W 000°02'612.8
2017-Nov-25 23:30N 50°30' E 000°08'713.1
2017-Nov-25 23:01N 50°32' E 000°17'713.5
2017-Nov-25 22:31N 50°34' E 000°27'713.8
2017-Nov-25 22:00N 50°37' E 000°37'714.5
2017-Nov-25 21:30N 50°41' E 000°47'714.8
2017-Nov-25 21:00N 50°46' E 000°56'715.0
2017-Nov-25 20:30N 50°51' E 001°05'814.8
2017-Nov-25 19:57N 50°57' E 001°13'614.4
2017-Nov-25 19:30N 51°01' E 001°21'713.9
2017-Nov-25 19:00N 51°05' E 001°30'713.2
2017-Nov-25 18:30N 51°10' E 001°38'612.9
2017-Nov-25 18:01N 51°14' E 001°46'612.7
2017-Nov-25 17:31N 51°19' E 001°52'713.0
2017-Nov-25 17:00N 51°25' E 001°56'612.8
2017-Nov-25 16:30N 51°30' E 002°02'713.3
2017-Nov-25 16:00N 51°35' E 002°09'6113.1
2017-Nov-25 11:20N 52°03' E 003°37'514.2
2017-Nov-25 11:00N 52°02' E 003°45'612.7
2017-Nov-25 10:30N 52°02' E 003°55'5 9.3
2017-Nov-25 10:00N 51°60' E 004°02'611.8
2017-Nov-25 09:30N 51°57' E 004°10'611.4
2017-Nov-25 09:00N 51°54' E 004°18'2 3.1
2017-Nov-25 08:29N 51°52' E 004°16'0 0.0
2017-Nov-25 07:56N 51°52' E 004°16'0 0.0
2017-Nov-25 07:29N 51°52' E 004°16'0 0.0
2017-Nov-25 06:59N 51°52' E 004°16'0 0.0
2017-Nov-25 06:23N 51°52' E 004°16'0 0.0
2017-Nov-25 05:17N 51°52' E 004°16'0 0.0
2017-Nov-25 04:56N 51°52' E 004°16'0 0.0
2017-Nov-25 04:26N 51°52' E 004°16'0 0.0
2017-Nov-25 03:59N 51°52' E 004°16'0 0.0
2017-Nov-25 03:23N 51°52' E 004°16'0 0.0
2017-Nov-25 02:59N 51°52' E 004°16'0 0.0
2017-Nov-25 02:20N 51°52' E 004°16'0 0.0
2017-Nov-25 01:56N 51°52' E 004°16'0 0.0
2017-Nov-25 01:29N 51°52' E 004°16'0 0.0
2017-Nov-25 00:50N 51°52' E 004°16'0 0.0
2017-Nov-25 00:26N 51°52' E 004°16'0 0.0
2017-Nov-24 23:26N 51°52' E 004°16'0 0.0
2017-Nov-24 22:59N 51°52' E 004°16'0 0.0
2017-Nov-24 22:26N 51°52' E 004°16'0 0.0
2017-Nov-24 21:56N 51°52' E 004°16'0 0.0
2017-Nov-24 21:29N 51°52' E 004°16'0 0.0
2017-Nov-24 20:59N 51°52' E 004°16'0 0.0
2017-Nov-24 20:29N 51°52' E 004°16'0 0.0
2017-Nov-24 19:20N 51°52' E 004°16'0 0.0
2017-Nov-24 18:56N 51°52' E 004°16'0 0.0
2017-Nov-24 18:29N 51°52' E 004°16'0 0.0
2017-Nov-24 17:44N 51°52' E 004°16'0 0.0
2017-Nov-24 17:29N 51°52' E 004°16'0 0.0
2017-Nov-24 16:56N 51°52' E 004°16'0 0.0
2017-Nov-24 16:26N 51°52' E 004°16'0 0.0
2017-Nov-24 15:08N 51°52' E 004°16'0 0.0
2017-Nov-24 14:59N 51°52' E 004°16'0 0.0
2017-Nov-24 14:14N 51°52' E 004°16'0 0.0
2017-Nov-24 13:56N 51°52' E 004°16'0 0.0
2017-Nov-24 12:35N 51°52' E 004°16'0 0.1
2017-Nov-24 12:29N 51°52' E 004°16'0 0.0
2017-Nov-24 11:59N 51°52' E 004°16'0 0.0
2017-Nov-24 11:20N 51°52' E 004°16'0 0.0
2017-Nov-24 10:59N 51°52' E 004°16'0 0.0
2017-Nov-24 10:26N 51°52' E 004°16'0 0.0
2017-Nov-24 09:59N 51°52' E 004°16'0 0.0
2017-Nov-24 09:29N 51°52' E 004°16'0 0.0
2017-Nov-24 08:56N 51°52' E 004°16'0 0.0
2017-Nov-24 08:26N 51°52' E 004°16'0 0.0
2017-Nov-24 07:50N 51°52' E 004°16'0 0.0
2017-Nov-24 07:29N 51°52' E 004°16'0 0.0
2017-Nov-24 06:59N 51°52' E 004°16'0 0.0
2017-Nov-24 06:26N 51°52' E 004°16'0 0.0
2017-Nov-24 05:47N 51°52' E 004°16'0 0.0
2017-Nov-24 05:29N 51°52' E 004°16'0 0.0
2017-Nov-24 04:50N 51°52' E 004°16'0 0.0
2017-Nov-24 04:26N 51°52' E 004°16'0 0.0
2017-Nov-24 03:47N 51°52' E 004°16'0 0.0
2017-Nov-24 03:26N 51°52' E 004°16'0 0.0
2017-Nov-24 02:53N 51°52' E 004°16'0 0.0
2017-Nov-24 02:29N 51°52' E 004°16'0 0.0
2017-Nov-24 01:50N 51°52' E 004°16'0 0.0
2017-Nov-24 01:26N 51°52' E 004°16'0 0.0
2017-Nov-24 00:59N 51°52' E 004°16'0 0.0
2017-Nov-24 00:29N 51°52' E 004°16'0 0.0
2017-Nov-23 23:59N 51°52' E 004°16'0 0.0
2017-Nov-23 23:17N 51°52' E 004°16'0 0.0
2017-Nov-23 22:56N 51°52' E 004°16'0 0.0
2017-Nov-23 22:29N 51°52' E 004°16'0 0.0
2017-Nov-23 21:41N 51°52' E 004°16'0 0.0
2017-Nov-23 21:29N 51°52' E 004°16'0 0.0
2017-Nov-23 20:59N 51°52' E 004°16'0 0.0
2017-Nov-23 20:29N 51°52' E 004°16'0 0.0
2017-Nov-23 19:53N 51°52' E 004°16'0 0.0
2017-Nov-23 19:23N 51°52' E 004°16'0 0.0
2017-Nov-23 18:59N 51°52' E 004°16'0 0.0
2017-Nov-23 18:20N 51°52' E 004°16'0 0.0
2017-Nov-23 17:59N 51°52' E 004°16'0 0.0
2017-Nov-23 17:29N 51°52' E 004°16'0 0.0
2017-Nov-23 16:59N 51°52' E 004°16'0 0.0
2017-Nov-23 16:29N 51°52' E 004°16'0 0.0
2017-Nov-23 15:59N 51°52' E 004°16'0 0.0
2017-Nov-23 15:30N 51°52' E 004°16'0 0.0
2017-Nov-23 15:00N 51°52' E 004°16'0 0.0
2017-Nov-23 14:30N 51°52' E 004°16'0 0.0
2017-Nov-23 14:00N 51°52' E 004°16'0 0.0
2017-Nov-23 13:30N 51°52' E 004°16'0 0.0
2017-Nov-23 13:00N 51°52' E 004°16'0 0.0
2017-Nov-23 12:30N 51°52' E 004°16'0 0.0
2017-Nov-23 12:00N 51°52' E 004°16'0 0.0
2017-Nov-23 11:30N 51°52' E 004°16'0 0.0
2017-Nov-23 11:00N 51°52' E 004°16'1 2.2
2017-Nov-23 10:30N 51°53' E 004°18'1 2.1
2017-Nov-23 10:00N 51°53' E 004°19'0 0.0
2017-Nov-23 09:25N 51°53' E 004°19'0 0.0
2017-Nov-23 08:43N 51°53' E 004°19'0 0.0
2017-Nov-23 08:25N 51°53' E 004°19'0 0.0
2017-Nov-23 07:58N 51°53' E 004°19'0 0.0
2017-Nov-23 07:22N 51°53' E 004°19'0 0.0
2017-Nov-23 06:58N 51°53' E 004°19'0 0.0
2017-Nov-23 06:25N 51°53' E 004°19'0 0.0
2017-Nov-23 05:55N 51°53' E 004°19'0 0.0
2017-Nov-23 05:22N 51°53' E 004°19'0 0.0
2017-Nov-23 04:58N 51°53' E 004°19'0 0.0
2017-Nov-23 04:28N 51°53' E 004°19'0 0.0
2017-Nov-23 03:58N 51°53' E 004°19'0 0.0
2017-Nov-23 03:28N 51°53' E 004°19'0 0.0
2017-Nov-23 02:58N 51°53' E 004°19'0 0.0
2017-Nov-23 02:28N 51°53' E 004°19'0 0.0
2017-Nov-23 01:55N 51°53' E 004°19'0 0.0
2017-Nov-23 01:28N 51°53' E 004°19'0 0.0
2017-Nov-23 00:58N 51°53' E 004°19'0 0.0
2017-Nov-23 00:28N 51°53' E 004°19'0 0.0
2017-Nov-22 23:55N 51°53' E 004°19'  

Dump ship's entire track history